sensor_id;sensor_type;location;lat;lon;timestamp;temperature;humidity
2579;DHT22;1299;48.282;14.398;2023-08-21T00:00:16;22.40;99.90
2579;DHT22;1299;48.282;14.398;2023-08-21T00:02:42;22.40;99.90
2579;DHT22;1299;48.282;14.398;2023-08-21T00:05:09;22.30;99.90
2579;DHT22;1299;48.282;14.398;2023-08-21T00:07:36;22.30;99.90
2579;DHT22;1299;48.282;14.398;2023-08-21T00:10:04;22.30;99.90
2579;DHT22;1299;48.282;14.398;2023-08-21T00:12:32;22.20;99.90
2579;DHT22;1299;48.282;14.398;2023-08-21T00:14:59;22.20;99.90
2579;DHT22;1299;48.282;14.398;2023-08-21T00:17:26;22.10;99.90
2579;DHT22;1299;48.282;14.398;2023-08-21T00:19:53;22.10;99.90
2579;DHT22;1299;48.282;14.398;2023-08-21T00:22:20;22.10;99.90
2579;DHT22;1299;48.282;14.398;2023-08-21T00:24:47;22.10;99.90
2579;DHT22;1299;48.282;14.398;2023-08-21T00:27:14;22.10;99.90
2579;DHT22;1299;48.282;14.398;2023-08-21T00:29:42;22.10;99.90
2579;DHT22;1299;48.282;14.398;2023-08-21T00:32:09;22.10;99.90
2579;DHT22;1299;48.282;14.398;2023-08-21T00:34:38;22.10;99.90
2579;DHT22;1299;48.282;14.398;2023-08-21T00:37:05;22.10;99.90
2579;DHT22;1299;48.282;14.398;2023-08-21T00:39:31;22.00;99.90
2579;DHT22;1299;48.282;14.398;2023-08-21T00:41:58;22.00;99.90
2579;DHT22;1299;48.282;14.398;2023-08-21T00:44:25;22.00;99.90
2579;DHT22;1299;48.282;14.398;2023-08-21T00:46:54;22.00;99.90
2579;DHT22;1299;48.282;14.398;2023-08-21T00:49:21;21.90;99.90
2579;DHT22;1299;48.282;14.398;2023-08-21T00:51:49;21.80;99.90
2579;DHT22;1299;48.282;14.398;2023-08-21T00:54:17;21.70;99.90
2579;DHT22;1299;48.282;14.398;2023-08-21T00:56:44;21.80;99.90
2579;DHT22;1299;48.282;14.398;2023-08-21T00:59:11;21.90;99.90
2579;DHT22;1299;48.282;14.398;2023-08-21T01:01:39;21.90;99.90
2579;DHT22;1299;48.282;14.398;2023-08-21T01:04:08;21.90;99.90
2579;DHT22;1299;48.282;14.398;2023-08-21T01:06:35;21.90;99.90
2579;DHT22;1299;48.282;14.398;2023-08-21T01:09:06;21.80;99.90
2579;DHT22;1299;48.282;14.398;2023-08-21T01:11:40;21.90;99.90
2579;DHT22;1299;48.282;14.398;2023-08-21T01:14:16;21.90;99.90
2579;DHT22;1299;48.282;14.398;2023-08-21T01:16:47;22.00;99.90
2579;DHT22;1299;48.282;14.398;2023-08-21T01:19:26;22.00;99.90
2579;DHT22;1299;48.282;14.398;2023-08-21T01:21:54;22.00;99.90
2579;DHT22;1299;48.282;14.398;2023-08-21T01:24:23;21.90;99.90
2579;DHT22;1299;48.282;14.398;2023-08-21T01:26:50;21.90;99.90
2579;DHT22;1299;48.282;14.398;2023-08-21T01:29:17;21.90;99.90
2579;DHT22;1299;48.282;14.398;2023-08-21T01:31:50;21.90;99.90
2579;DHT22;1299;48.282;14.398;2023-08-21T01:34:18;21.80;99.90
2579;DHT22;1299;48.282;14.398;2023-08-21T01:36:46;21.80;99.90
2579;DHT22;1299;48.282;14.398;2023-08-21T01:39:13;21.90;99.90
2579;DHT22;1299;48.282;14.398;2023-08-21T01:41:43;21.90;99.90
2579;DHT22;1299;48.282;14.398;2023-08-21T01:44:10;21.80;99.90
2579;DHT22;1299;48.282;14.398;2023-08-21T01:46:37;21.80;99.90
2579;DHT22;1299;48.282;14.398;2023-08-21T01:49:03;21.80;99.90
2579;DHT22;1299;48.282;14.398;2023-08-21T01:51:30;21.60;99.90
2579;DHT22;1299;48.282;14.398;2023-08-21T01:53:57;21.60;99.90
2579;DHT22;1299;48.282;14.398;2023-08-21T01:56:24;21.70;99.90
2579;DHT22;1299;48.282;14.398;2023-08-21T01:58:53;21.70;99.90
2579;DHT22;1299;48.282;14.398;2023-08-21T02:01:19;21.70;99.90
2579;DHT22;1299;48.282;14.398;2023-08-21T02:03:46;21.70;99.90
2579;DHT22;1299;48.282;14.398;2023-08-21T02:06:13;21.70;99.90
2579;DHT22;1299;48.282;14.398;2023-08-21T02:08:40;21.60;99.90
2579;DHT22;1299;48.282;14.398;2023-08-21T02:11:07;21.50;99.90
2579;DHT22;1299;48.282;14.398;2023-08-21T02:13:34;21.50;99.90
2579;DHT22;1299;48.282;14.398;2023-08-21T02:16:03;21.50;99.90
2579;DHT22;1299;48.282;14.398;2023-08-21T02:18:30;21.40;99.90
2579;DHT22;1299;48.282;14.398;2023-08-21T02:20:56;21.30;99.90
2579;DHT22;1299;48.282;14.398;2023-08-21T02:23:23;21.20;99.90
2579;DHT22;1299;48.282;14.398;2023-08-21T02:25:51;21.10;99.90
2579;DHT22;1299;48.282;14.398;2023-08-21T02:28:18;21.10;99.90
2579;DHT22;1299;48.282;14.398;2023-08-21T02:30:45;21.00;99.90
2579;DHT22;1299;48.282;14.398;2023-08-21T02:33:13;21.10;99.90
2579;DHT22;1299;48.282;14.398;2023-08-21T02:35:40;21.00;99.90
2579;DHT22;1299;48.282;14.398;2023-08-21T02:38:07;21.00;99.90
2579;DHT22;1299;48.282;14.398;2023-08-21T02:40:34;21.00;99.90
2579;DHT22;1299;48.282;14.398;2023-08-21T02:43:01;21.00;99.90
2579;DHT22;1299;48.282;14.398;2023-08-21T02:45:28;20.90;99.90
2579;DHT22;1299;48.282;14.398;2023-08-21T02:47:55;20.90;99.90
2579;DHT22;1299;48.282;14.398;2023-08-21T02:50:24;20.90;99.90
2579;DHT22;1299;48.282;14.398;2023-08-21T02:52:50;20.80;99.90
2579;DHT22;1299;48.282;14.398;2023-08-21T02:55:17;20.80;99.90
2579;DHT22;1299;48.282;14.398;2023-08-21T02:57:46;20.80;99.90
2579;DHT22;1299;48.282;14.398;2023-08-21T03:00:13;20.80;99.90
2579;DHT22;1299;48.282;14.398;2023-08-21T03:02:40;20.80;99.90
2579;DHT22;1299;48.282;14.398;2023-08-21T03:05:09;20.70;99.90
2579;DHT22;1299;48.282;14.398;2023-08-21T03:07:37;20.70;99.90
2579;DHT22;1299;48.282;14.398;2023-08-21T03:10:05;20.70;99.90
2579;DHT22;1299;48.282;14.398;2023-08-21T03:12:32;20.70;99.90
2579;DHT22;1299;48.282;14.398;2023-08-21T03:14:59;20.80;99.90
2579;DHT22;1299;48.282;14.398;2023-08-21T03:17:26;20.80;99.90
2579;DHT22;1299;48.282;14.398;2023-08-21T03:19:53;20.80;99.90
2579;DHT22;1299;48.282;14.398;2023-08-21T03:22:20;20.90;99.90
2579;DHT22;1299;48.282;14.398;2023-08-21T03:24:48;20.90;99.90
2579;DHT22;1299;48.282;14.398;2023-08-21T03:27:16;20.80;99.90
2579;DHT22;1299;48.282;14.398;2023-08-21T03:29:43;20.80;99.90
2579;DHT22;1299;48.282;14.398;2023-08-21T03:32:14;20.70;99.90
2579;DHT22;1299;48.282;14.398;2023-08-21T03:34:41;20.70;99.90
2579;DHT22;1299;48.282;14.398;2023-08-21T03:37:08;20.70;99.90
2579;DHT22;1299;48.282;14.398;2023-08-21T03:39:35;20.60;99.90
2579;DHT22;1299;48.282;14.398;2023-08-21T03:42:04;20.50;99.90
2579;DHT22;1299;48.282;14.398;2023-08-21T03:44:31;20.50;99.90
2579;DHT22;1299;48.282;14.398;2023-08-21T03:46:59;20.50;99.90
2579;DHT22;1299;48.282;14.398;2023-08-21T03:49:26;20.50;99.90
2579;DHT22;1299;48.282;14.398;2023-08-21T03:51:52;20.50;99.90
2579;DHT22;1299;48.282;14.398;2023-08-21T03:54:19;20.50;99.90
2579;DHT22;1299;48.282;14.398;2023-08-21T03:56:46;20.40;99.90
2579;DHT22;1299;48.282;14.398;2023-08-21T03:59:15;20.40;99.90
2579;DHT22;1299;48.282;14.398;2023-08-21T04:01:42;20.30;99.90
2579;DHT22;1299;48.282;14.398;2023-08-21T04:04:09;20.30;99.90
2579;DHT22;1299;48.282;14.398;2023-08-21T04:06:36;20.30;99.90
2579;DHT22;1299;48.282;14.398;2023-08-21T04:09:03;20.20;99.90
2579;DHT22;1299;48.282;14.398;2023-08-21T04:11:31;20.20;99.90
2579;DHT22;1299;48.282;14.398;2023-08-21T04:13:59;20.10;99.90
2579;DHT22;1299;48.282;14.398;2023-08-21T04:16:28;20.10;99.90
2579;DHT22;1299;48.282;14.398;2023-08-21T04:18:56;20.10;99.90
2579;DHT22;1299;48.282;14.398;2023-08-21T04:21:23;20.10;99.90
2579;DHT22;1299;48.282;14.398;2023-08-21T04:23:50;20.10;99.90
2579;DHT22;1299;48.282;14.398;2023-08-21T04:26:17;20.10;99.90
2579;DHT22;1299;48.282;14.398;2023-08-21T04:28:44;20.10;99.90
2579;DHT22;1299;48.282;14.398;2023-08-21T04:31:11;20.10;99.90
2579;DHT22;1299;48.282;14.398;2023-08-21T04:33:39;20.10;99.90
2579;DHT22;1299;48.282;14.398;2023-08-21T04:36:06;20.10;99.90
2579;DHT22;1299;48.282;14.398;2023-08-21T04:38:33;20.20;99.90
2579;DHT22;1299;48.282;14.398;2023-08-21T04:41:07;20.20;99.90
2579;DHT22;1299;48.282;14.398;2023-08-21T04:43:35;20.20;99.90
2579;DHT22;1299;48.282;14.398;2023-08-21T04:46:04;20.20;99.90
2579;DHT22;1299;48.282;14.398;2023-08-21T04:48:31;20.20;99.90
2579;DHT22;1299;48.282;14.398;2023-08-21T04:50:59;20.20;99.90
2579;DHT22;1299;48.282;14.398;2023-08-21T04:53:26;20.20;99.90
2579;DHT22;1299;48.282;14.398;2023-08-21T04:55:53;20.30;99.90
2579;DHT22;1299;48.282;14.398;2023-08-21T04:58:20;20.30;99.90
2579;DHT22;1299;48.282;14.398;2023-08-21T05:00:47;20.40;99.90
2579;DHT22;1299;48.282;14.398;2023-08-21T05:03:14;20.30;99.90
2579;DHT22;1299;48.282;14.398;2023-08-21T05:05:41;20.40;99.90
2579;DHT22;1299;48.282;14.398;2023-08-21T05:08:09;20.40;99.90
2579;DHT22;1299;48.282;14.398;2023-08-21T05:10:37;20.30;99.90
2579;DHT22;1299;48.282;14.398;2023-08-21T05:13:04;20.30;99.90
2579;DHT22;1299;48.282;14.398;2023-08-21T05:15:31;20.40;99.90
2579;DHT22;1299;48.282;14.398;2023-08-21T05:17:58;20.50;99.90
2579;DHT22;1299;48.282;14.398;2023-08-21T05:20:25;20.50;99.90
2579;DHT22;1299;48.282;14.398;2023-08-21T05:22:52;20.70;99.90
2579;DHT22;1299;48.282;14.398;2023-08-21T05:25:20;21.20;99.90
2579;DHT22;1299;48.282;14.398;2023-08-21T05:27:47;21.70;99.90
2579;DHT22;1299;48.282;14.398;2023-08-21T05:30:14;22.20;99.90
2579;DHT22;1299;48.282;14.398;2023-08-21T05:32:41;22.80;99.90
2579;DHT22;1299;48.282;14.398;2023-08-21T05:35:08;23.70;99.90
2579;DHT22;1299;48.282;14.398;2023-08-21T05:37:36;25.00;99.90
2579;DHT22;1299;48.282;14.398;2023-08-21T05:40:04;26.40;99.90
2579;DHT22;1299;48.282;14.398;2023-08-21T05:42:33;27.30;99.90
2579;DHT22;1299;48.282;14.398;2023-08-21T05:45:00;28.40;99.90
2579;DHT22;1299;48.282;14.398;2023-08-21T05:47:27;29.10;99.90
2579;DHT22;1299;48.282;14.398;2023-08-21T05:49:54;30.10;99.90
2579;DHT22;1299;48.282;14.398;2023-08-21T05:52:22;30.90;99.90
2579;DHT22;1299;48.282;14.398;2023-08-21T05:54:49;31.70;99.90
2579;DHT22;1299;48.282;14.398;2023-08-21T05:57:16;32.10;99.90
2579;DHT22;1299;48.282;14.398;2023-08-21T05:59:46;33.10;99.90
2579;DHT22;1299;48.282;14.398;2023-08-21T06:02:13;33.10;98.70
2579;DHT22;1299;48.282;14.398;2023-08-21T06:04:41;33.20;98.30
2579;DHT22;1299;48.282;14.398;2023-08-21T06:07:08;33.20;97.90
2579;DHT22;1299;48.282;14.398;2023-08-21T06:09:35;33.60;96.60
2579;DHT22;1299;48.282;14.398;2023-08-21T06:12:03;34.30;94.70
2579;DHT22;1299;48.282;14.398;2023-08-21T06:14:30;34.40;94.90
2579;DHT22;1299;48.282;14.398;2023-08-21T06:16:59;34.60;94.00
2579;DHT22;1299;48.282;14.398;2023-08-21T06:19:26;33.60;93.60
2579;DHT22;1299;48.282;14.398;2023-08-21T06:21:54;34.30;93.80
2579;DHT22;1299;48.282;14.398;2023-08-21T06:24:21;34.50;92.40
2579;DHT22;1299;48.282;14.398;2023-08-21T06:26:48;33.30;91.30
2579;DHT22;1299;48.282;14.398;2023-08-21T06:29:15;32.10;94.70
2579;DHT22;1299;48.282;14.398;2023-08-21T06:31:43;32.40;94.10
2579;DHT22;1299;48.282;14.398;2023-08-21T06:34:11;32.90;93.90
2579;DHT22;1299;48.282;14.398;2023-08-21T06:36:38;32.60;94.80
2579;DHT22;1299;48.282;14.398;2023-08-21T06:39:05;33.40;94.90
2579;DHT22;1299;48.282;14.398;2023-08-21T06:41:32;33.50;94.30
2579;DHT22;1299;48.282;14.398;2023-08-21T06:43:59;33.20;95.30
2579;DHT22;1299;48.282;14.398;2023-08-21T06:46:26;31.10;97.80
2579;DHT22;1299;48.282;14.398;2023-08-21T06:48:53;31.50;97.90
2579;DHT22;1299;48.282;14.398;2023-08-21T06:51:21;30.10;99.90
2579;DHT22;1299;48.282;14.398;2023-08-21T06:53:48;29.50;99.90
2579;DHT22;1299;48.282;14.398;2023-08-21T06:56:15;29.20;99.90
2579;DHT22;1299;48.282;14.398;2023-08-21T06:58:43;29.10;99.90
2579;DHT22;1299;48.282;14.398;2023-08-21T07:01:10;29.20;99.90
2579;DHT22;1299;48.282;14.398;2023-08-21T07:03:37;28.80;99.90
2579;DHT22;1299;48.282;14.398;2023-08-21T07:06:03;28.60;99.90
2579;DHT22;1299;48.282;14.398;2023-08-21T07:08:32;28.60;99.90
2579;DHT22;1299;48.282;14.398;2023-08-21T07:11:02;28.60;99.90
2579;DHT22;1299;48.282;14.398;2023-08-21T07:13:29;28.60;99.90
2579;DHT22;1299;48.282;14.398;2023-08-21T07:15:56;28.70;99.90
2579;DHT22;1299;48.282;14.398;2023-08-21T07:18:23;29.20;99.90
2579;DHT22;1299;48.282;14.398;2023-08-21T07:20:52;29.50;99.90
2579;DHT22;1299;48.282;14.398;2023-08-21T07:23:19;28.80;99.90
2579;DHT22;1299;48.282;14.398;2023-08-21T07:25:47;29.10;99.90
2579;DHT22;1299;48.282;14.398;2023-08-21T07:28:14;28.50;99.90
2579;DHT22;1299;48.282;14.398;2023-08-21T07:30:41;28.10;99.90
2579;DHT22;1299;48.282;14.398;2023-08-21T07:33:08;28.40;99.90
2579;DHT22;1299;48.282;14.398;2023-08-21T07:35:35;28.70;99.90
2579;DHT22;1299;48.282;14.398;2023-08-21T07:38:02;28.40;99.90
2579;DHT22;1299;48.282;14.398;2023-08-21T07:40:30;28.40;99.90
2579;DHT22;1299;48.282;14.398;2023-08-21T07:42:58;28.60;99.90
2579;DHT22;1299;48.282;14.398;2023-08-21T07:45:25;28.50;99.90
2579;DHT22;1299;48.282;14.398;2023-08-21T07:47:52;28.70;99.90
2579;DHT22;1299;48.282;14.398;2023-08-21T07:50:19;28.50;99.90
2579;DHT22;1299;48.282;14.398;2023-08-21T07:52:46;28.80;99.90
2579;DHT22;1299;48.282;14.398;2023-08-21T07:55:13;28.80;99.90
2579;DHT22;1299;48.282;14.398;2023-08-21T07:57:40;28.90;99.90
2579;DHT22;1299;48.282;14.398;2023-08-21T08:00:10;29.00;99.90
2579;DHT22;1299;48.282;14.398;2023-08-21T08:02:38;29.20;99.90
2579;DHT22;1299;48.282;14.398;2023-08-21T08:05:05;29.20;99.90
2579;DHT22;1299;48.282;14.398;2023-08-21T08:07:33;29.50;99.90
2579;DHT22;1299;48.282;14.398;2023-08-21T08:09:59;29.30;99.90
2579;DHT22;1299;48.282;14.398;2023-08-21T08:12:26;29.60;99.90
2579;DHT22;1299;48.282;14.398;2023-08-21T08:14:53;29.80;99.90
2579;DHT22;1299;48.282;14.398;2023-08-21T08:17:21;29.80;99.90
2579;DHT22;1299;48.282;14.398;2023-08-21T08:19:48;29.50;99.90
2579;DHT22;1299;48.282;14.398;2023-08-21T08:22:15;29.70;99.90
2579;DHT22;1299;48.282;14.398;2023-08-21T08:24:42;29.90;99.90
2579;DHT22;1299;48.282;14.398;2023-08-21T08:27:09;29.40;99.90
2579;DHT22;1299;48.282;14.398;2023-08-21T08:29:37;29.90;99.90
2579;DHT22;1299;48.282;14.398;2023-08-21T08:32:05;29.80;99.90
2579;DHT22;1299;48.282;14.398;2023-08-21T08:34:34;30.10;99.90
2579;DHT22;1299;48.282;14.398;2023-08-21T08:37:01;29.90;99.90
2579;DHT22;1299;48.282;14.398;2023-08-21T08:39:28;29.70;99.90
2579;DHT22;1299;48.282;14.398;2023-08-21T08:41:58;29.90;99.90
2579;DHT22;1299;48.282;14.398;2023-08-21T08:44:26;30.20;99.90
2579;DHT22;1299;48.282;14.398;2023-08-21T08:46:53;29.90;99.90
2579;DHT22;1299;48.282;14.398;2023-08-21T08:49:21;29.60;99.90
2579;DHT22;1299;48.282;14.398;2023-08-21T08:51:50;30.10;99.90
2579;DHT22;1299;48.282;14.398;2023-08-21T08:54:19;30.00;99.90
2579;DHT22;1299;48.282;14.398;2023-08-21T08:56:46;30.30;99.90
2579;DHT22;1299;48.282;14.398;2023-08-21T08:59:13;30.00;99.90
2579;DHT22;1299;48.282;14.398;2023-08-21T09:01:41;30.60;99.90
2579;DHT22;1299;48.282;14.398;2023-08-21T09:04:08;30.30;99.90
2579;DHT22;1299;48.282;14.398;2023-08-21T09:06:35;30.40;99.90
2579;DHT22;1299;48.282;14.398;2023-08-21T09:09:04;30.50;99.90
2579;DHT22;1299;48.282;14.398;2023-08-21T09:11:32;30.80;99.90
2579;DHT22;1299;48.282;14.398;2023-08-21T09:14:00;30.50;99.90
2579;DHT22;1299;48.282;14.398;2023-08-21T09:16:27;30.40;99.90
2579;DHT22;1299;48.282;14.398;2023-08-21T09:18:55;30.70;99.90
2579;DHT22;1299;48.282;14.398;2023-08-21T09:21:23;30.80;99.90
2579;DHT22;1299;48.282;14.398;2023-08-21T09:23:57;31.10;99.90
2579;DHT22;1299;48.282;14.398;2023-08-21T09:26:26;30.90;99.90
2579;DHT22;1299;48.282;14.398;2023-08-21T09:28:53;31.40;99.90
2579;DHT22;1299;48.282;14.398;2023-08-21T09:31:24;31.50;99.90
2579;DHT22;1299;48.282;14.398;2023-08-21T09:33:55;31.40;99.90
2579;DHT22;1299;48.282;14.398;2023-08-21T09:36:23;31.30;99.90
2579;DHT22;1299;48.282;14.398;2023-08-21T09:38:51;31.60;99.90
2579;DHT22;1299;48.282;14.398;2023-08-21T09:41:19;31.30;99.90
2579;DHT22;1299;48.282;14.398;2023-08-21T09:43:48;31.70;99.90
2579;DHT22;1299;48.282;14.398;2023-08-21T09:46:16;31.40;99.90
2579;DHT22;1299;48.282;14.398;2023-08-21T09:48:44;31.60;99.90
2579;DHT22;1299;48.282;14.398;2023-08-21T09:51:12;31.60;99.90
2579;DHT22;1299;48.282;14.398;2023-08-21T09:53:40;31.80;99.90
2579;DHT22;1299;48.282;14.398;2023-08-21T09:56:07;31.70;99.90
2579;DHT22;1299;48.282;14.398;2023-08-21T09:58:35;31.80;99.90
2579;DHT22;1299;48.282;14.398;2023-08-21T10:01:06;32.00;99.90
2579;DHT22;1299;48.282;14.398;2023-08-21T10:03:39;31.60;99.90
2579;DHT22;1299;48.282;14.398;2023-08-21T10:06:08;31.70;99.90
2579;DHT22;1299;48.282;14.398;2023-08-21T10:08:38;31.60;99.90
2579;DHT22;1299;48.282;14.398;2023-08-21T10:11:07;31.60;99.90
2579;DHT22;1299;48.282;14.398;2023-08-21T10:13:36;32.00;99.90
2579;DHT22;1299;48.282;14.398;2023-08-21T10:16:05;32.00;99.90
2579;DHT22;1299;48.282;14.398;2023-08-21T10:18:33;32.10;99.90
2579;DHT22;1299;48.282;14.398;2023-08-21T10:21:14;32.10;99.90
2579;DHT22;1299;48.282;14.398;2023-08-21T10:23:42;32.00;99.90
2579;DHT22;1299;48.282;14.398;2023-08-21T10:26:10;32.20;99.90
2579;DHT22;1299;48.282;14.398;2023-08-21T10:28:59;32.30;99.90
2579;DHT22;1299;48.282;14.398;2023-08-21T10:31:33;32.30;99.90
2579;DHT22;1299;48.282;14.398;2023-08-21T10:34:02;32.70;99.90
2579;DHT22;1299;48.282;14.398;2023-08-21T10:36:39;32.90;99.90
2579;DHT22;1299;48.282;14.398;2023-08-21T10:39:13;32.70;99.90
2579;DHT22;1299;48.282;14.398;2023-08-21T10:41:41;32.40;99.90
2579;DHT22;1299;48.282;14.398;2023-08-21T10:44:07;32.30;99.90
2579;DHT22;1299;48.282;14.398;2023-08-21T10:46:51;32.60;99.90
2579;DHT22;1299;48.282;14.398;2023-08-21T10:49:18;32.50;99.60
2579;DHT22;1299;48.282;14.398;2023-08-21T10:51:45;32.70;99.90
2579;DHT22;1299;48.282;14.398;2023-08-21T10:54:13;32.90;99.50
2579;DHT22;1299;48.282;14.398;2023-08-21T10:56:40;32.60;99.10
2579;DHT22;1299;48.282;14.398;2023-08-21T10:59:07;32.70;98.30
2579;DHT22;1299;48.282;14.398;2023-08-21T11:01:43;32.90;97.10
2579;DHT22;1299;48.282;14.398;2023-08-21T11:04:12;32.90;96.50
2579;DHT22;1299;48.282;14.398;2023-08-21T11:06:39;33.30;95.60
2579;DHT22;1299;48.282;14.398;2023-08-21T11:09:12;33.30;96.10
2579;DHT22;1299;48.282;14.398;2023-08-21T11:11:39;33.30;95.90
2579;DHT22;1299;48.282;14.398;2023-08-21T11:14:06;33.40;95.60
2579;DHT22;1299;48.282;14.398;2023-08-21T11:16:33;33.10;93.70
2579;DHT22;1299;48.282;14.398;2023-08-21T11:19:03;32.90;92.80
2579;DHT22;1299;48.282;14.398;2023-08-21T11:21:32;32.90;92.40
2579;DHT22;1299;48.282;14.398;2023-08-21T11:23:59;33.30;92.90
2579;DHT22;1299;48.282;14.398;2023-08-21T11:26:26;33.80;93.00
2579;DHT22;1299;48.282;14.398;2023-08-21T11:28:55;33.80;93.90
2579;DHT22;1299;48.282;14.398;2023-08-21T11:31:22;33.50;93.10
2579;DHT22;1299;48.282;14.398;2023-08-21T11:33:50;33.60;95.10
2579;DHT22;1299;48.282;14.398;2023-08-21T11:36:17;33.60;93.40
2579;DHT22;1299;48.282;14.398;2023-08-21T11:38:57;34.00;93.80
2579;DHT22;1299;48.282;14.398;2023-08-21T11:41:24;34.40;93.00
2579;DHT22;1299;48.282;14.398;2023-08-21T11:43:51;34.50;92.60
2579;DHT22;1299;48.282;14.398;2023-08-21T11:46:18;34.40;93.20
2579;DHT22;1299;48.282;14.398;2023-08-21T11:48:45;34.20;92.10
2579;DHT22;1299;48.282;14.398;2023-08-21T11:51:12;34.00;92.60
2579;DHT22;1299;48.282;14.398;2023-08-21T11:53:40;34.00;92.70
2579;DHT22;1299;48.282;14.398;2023-08-21T11:56:14;34.40;92.20
2579;DHT22;1299;48.282;14.398;2023-08-21T11:58:41;34.50;92.20
2579;DHT22;1299;48.282;14.398;2023-08-21T12:01:09;34.30;92.70
2579;DHT22;1299;48.282;14.398;2023-08-21T12:03:36;34.60;92.70
2579;DHT22;1299;48.282;14.398;2023-08-21T12:06:05;35.00;91.50
2579;DHT22;1299;48.282;14.398;2023-08-21T12:08:32;34.80;90.90
2579;DHT22;1299;48.282;14.398;2023-08-21T12:10:59;34.80;90.90
2579;DHT22;1299;48.282;14.398;2023-08-21T12:13:28;34.70;90.00
2579;DHT22;1299;48.282;14.398;2023-08-21T12:15:55;34.30;89.20
2579;DHT22;1299;48.282;14.398;2023-08-21T12:18:23;35.00;90.00
2579;DHT22;1299;48.282;14.398;2023-08-21T12:20:50;35.50;87.70
2579;DHT22;1299;48.282;14.398;2023-08-21T12:23:17;35.40;87.20
2579;DHT22;1299;48.282;14.398;2023-08-21T12:25:44;35.60;88.00
2579;DHT22;1299;48.282;14.398;2023-08-21T12:28:11;35.80;85.20
2579;DHT22;1299;48.282;14.398;2023-08-21T12:30:40;35.60;85.80
2579;DHT22;1299;48.282;14.398;2023-08-21T12:33:07;34.90;81.40
2579;DHT22;1299;48.282;14.398;2023-08-21T12:35:34;34.90;84.00
2579;DHT22;1299;48.282;14.398;2023-08-21T12:38:01;34.30;84.70
2579;DHT22;1299;48.282;14.398;2023-08-21T12:40:31;34.80;85.20
2579;DHT22;1299;48.282;14.398;2023-08-21T12:42:58;34.90;85.30
2579;DHT22;1299;48.282;14.398;2023-08-21T12:45:25;34.80;86.50
2579;DHT22;1299;48.282;14.398;2023-08-21T12:47:53;34.90;87.20
2579;DHT22;1299;48.282;14.398;2023-08-21T12:50:20;34.80;86.60
2579;DHT22;1299;48.282;14.398;2023-08-21T12:52:47;35.20;86.30
2579;DHT22;1299;48.282;14.398;2023-08-21T12:55:14;35.40;84.40
2579;DHT22;1299;48.282;14.398;2023-08-21T12:57:41;34.90;82.40
2579;DHT22;1299;48.282;14.398;2023-08-21T13:00:08;35.20;83.60
2579;DHT22;1299;48.282;14.398;2023-08-21T13:02:37;35.70;81.20
2579;DHT22;1299;48.282;14.398;2023-08-21T13:05:06;35.40;85.80
2579;DHT22;1299;48.282;14.398;2023-08-21T13:07:33;35.20;83.50
2579;DHT22;1299;48.282;14.398;2023-08-21T13:09:59;35.60;84.40
2579;DHT22;1299;48.282;14.398;2023-08-21T13:12:27;36.00;84.00
2579;DHT22;1299;48.282;14.398;2023-08-21T13:14:54;35.90;83.10
2579;DHT22;1299;48.282;14.398;2023-08-21T13:17:21;35.50;81.90
2579;DHT22;1299;48.282;14.398;2023-08-21T13:19:48;36.00;85.00
2579;DHT22;1299;48.282;14.398;2023-08-21T13:22:17;35.80;84.00
2579;DHT22;1299;48.282;14.398;2023-08-21T13:24:44;34.90;86.70
2579;DHT22;1299;48.282;14.398;2023-08-21T13:27:11;34.70;85.60
2579;DHT22;1299;48.282;14.398;2023-08-21T13:29:38;35.10;83.10
2579;DHT22;1299;48.282;14.398;2023-08-21T13:32:05;34.90;84.30
2579;DHT22;1299;48.282;14.398;2023-08-21T13:34:32;35.70;84.50
2579;DHT22;1299;48.282;14.398;2023-08-21T13:36:59;35.90;86.80
2579;DHT22;1299;48.282;14.398;2023-08-21T13:39:27;36.00;85.40
2579;DHT22;1299;48.282;14.398;2023-08-21T13:41:54;35.80;83.40
2579;DHT22;1299;48.282;14.398;2023-08-21T13:44:21;35.40;84.50
2579;DHT22;1299;48.282;14.398;2023-08-21T13:46:48;35.20;85.70
2579;DHT22;1299;48.282;14.398;2023-08-21T13:49:15;35.20;86.00
2579;DHT22;1299;48.282;14.398;2023-08-21T13:51:42;35.50;86.20
2579;DHT22;1299;48.282;14.398;2023-08-21T13:54:09;35.60;86.90
2579;DHT22;1299;48.282;14.398;2023-08-21T13:56:38;35.70;85.80
2579;DHT22;1299;48.282;14.398;2023-08-21T13:59:05;36.10;85.40
2579;DHT22;1299;48.282;14.398;2023-08-21T14:01:32;36.20;85.70
2579;DHT22;1299;48.282;14.398;2023-08-21T14:03:59;36.40;86.90
2579;DHT22;1299;48.282;14.398;2023-08-21T14:06:27;36.60;85.70
2579;DHT22;1299;48.282;14.398;2023-08-21T14:08:55;36.50;81.30
2579;DHT22;1299;48.282;14.398;2023-08-21T14:11:22;36.60;82.90
2579;DHT22;1299;48.282;14.398;2023-08-21T14:13:50;37.00;83.50
2579;DHT22;1299;48.282;14.398;2023-08-21T14:16:17;37.20;81.90
2579;DHT22;1299;48.282;14.398;2023-08-21T14:18:44;37.10;80.70
2579;DHT22;1299;48.282;14.398;2023-08-21T14:21:11;37.20;80.80
2579;DHT22;1299;48.282;14.398;2023-08-21T14:23:37;37.40;80.90
2579;DHT22;1299;48.282;14.398;2023-08-21T14:26:05;37.30;79.50
2579;DHT22;1299;48.282;14.398;2023-08-21T14:28:33;37.10;79.60
2579;DHT22;1299;48.282;14.398;2023-08-21T14:31:01;37.30;77.60
2579;DHT22;1299;48.282;14.398;2023-08-21T14:33:28;36.90;76.80
2579;DHT22;1299;48.282;14.398;2023-08-21T14:35:55;36.90;77.50
2579;DHT22;1299;48.282;14.398;2023-08-21T14:38:22;36.40;73.30
2579;DHT22;1299;48.282;14.398;2023-08-21T14:40:50;36.20;75.20
2579;DHT22;1299;48.282;14.398;2023-08-21T14:43:18;36.40;74.10
2579;DHT22;1299;48.282;14.398;2023-08-21T14:45:44;36.20;74.20
2579;DHT22;1299;48.282;14.398;2023-08-21T14:48:13;36.20;73.90
2579;DHT22;1299;48.282;14.398;2023-08-21T14:50:40;36.30;76.00
2579;DHT22;1299;48.282;14.398;2023-08-21T14:53:07;36.70;75.20
2579;DHT22;1299;48.282;14.398;2023-08-21T14:55:34;37.00;75.90
2579;DHT22;1299;48.282;14.398;2023-08-21T14:58:01;36.80;73.80
2579;DHT22;1299;48.282;14.398;2023-08-21T15:00:31;36.60;73.10
2579;DHT22;1299;48.282;14.398;2023-08-21T15:02:58;36.60;71.30
2579;DHT22;1299;48.282;14.398;2023-08-21T15:05:27;36.30;73.70
2579;DHT22;1299;48.282;14.398;2023-08-21T15:07:54;36.30;76.40
2579;DHT22;1299;48.282;14.398;2023-08-21T15:10:22;36.50;76.90
2579;DHT22;1299;48.282;14.398;2023-08-21T15:12:49;36.50;74.40
2579;DHT22;1299;48.282;14.398;2023-08-21T15:15:16;36.30;74.80
2579;DHT22;1299;48.282;14.398;2023-08-21T15:17:43;36.00;75.00
2579;DHT22;1299;48.282;14.398;2023-08-21T15:20:10;35.80;76.10
2579;DHT22;1299;48.282;14.398;2023-08-21T15:22:41;36.00;77.10
2579;DHT22;1299;48.282;14.398;2023-08-21T15:25:09;36.00;78.00
2579;DHT22;1299;48.282;14.398;2023-08-21T15:27:37;35.90;78.30
2579;DHT22;1299;48.282;14.398;2023-08-21T15:30:05;36.10;77.60
2579;DHT22;1299;48.282;14.398;2023-08-21T15:32:32;35.80;76.60
2579;DHT22;1299;48.282;14.398;2023-08-21T15:34:59;35.80;78.30
2579;DHT22;1299;48.282;14.398;2023-08-21T15:37:26;36.20;79.00
2579;DHT22;1299;48.282;14.398;2023-08-21T15:39:55;35.80;76.30
2579;DHT22;1299;48.282;14.398;2023-08-21T15:42:22;35.80;75.90
2579;DHT22;1299;48.282;14.398;2023-08-21T15:44:49;35.90;77.00
2579;DHT22;1299;48.282;14.398;2023-08-21T15:47:16;35.90;77.50